KLRU/LRU METAR and TAF weather

Enter ICAO airport designator
Station Type Date Time Source
KLRU METAR 2022/11/30 16:55 UTC NOAA

KLRU 301655Z AUTO 00000KT 10SM CLR 08/M09 A3024 RMK AO2 T00801087


Station Type Date Time Source
KLRU Decoded METAR 2022/11/30 16:55 UTC NOAA

Las Cruces, Las Cruces International Airport, NM, United States (KLRU) 32-17-22N 106-55-19W
Nov 30, 2022 - 11:55 AM EST / 2022.11.30 1655 UTC
Wind: Calm:0
Visibility: 10 mile(s):0
Sky conditions: clear
Temperature: 46.4 F (8.0 C)
Dew Point: 16.3 F (-8.7 C)
Relative Humidity: 29%
Pressure (altimeter): 30.24 in. Hg (1024 hPa)
ob: KLRU 301655Z AUTO 00000KT 10SM CLR 08/M09 A3024 RMK AO2 T00801087
cycle: 17

Station Type Date Time Source
KLRU TAF 2022/11/30 12:40 UTC NOAA

TAF KLRU 301138Z 3012/0112 VRB04KT P6SM SKC
FM301500 04005KT P6SM SCT200
FM010600 14004KT P6SM BKN250

Example: see airport list